createdAt,value
2018-04-24T00:00:24.291Z,11.25
2018-04-24T00:01:24.385Z,11.25
2018-04-24T00:02:24.477Z,11.24
2018-04-24T00:03:24.572Z,11.21
2018-04-24T00:04:24.671Z,11.20
2018-04-24T00:05:24.765Z,11.17
2018-04-24T00:06:24.862Z,11.25
2018-04-24T00:07:24.956Z,11.24
2018-04-24T00:08:25.053Z,11.17
2018-04-24T00:09:25.142Z,11.19
2018-04-24T00:10:25.235Z,11.21
2018-04-24T00:11:25.333Z,11.21
2018-04-24T00:12:25.429Z,11.17
2018-04-24T00:13:25.523Z,11.24
2018-04-24T00:14:25.623Z,11.17
2018-04-24T00:15:25.718Z,11.14
2018-04-24T00:16:25.815Z,11.17
2018-04-24T00:17:25.910Z,11.17
2018-04-24T00:18:26.005Z,11.02
2018-04-24T00:19:26.101Z,11.07
2018-04-24T00:20:26.192Z,11.03
2018-04-24T00:21:26.294Z,11.02
2018-04-24T00:22:26.385Z,10.99
2018-04-24T00:23:26.485Z,10.95
2018-04-24T00:24:26.584Z,10.94
2018-04-24T00:25:26.677Z,10.94
2018-04-24T00:26:26.770Z,10.95
2018-04-24T00:27:26.946Z,10.94
2018-04-24T00:28:27.060Z,10.88
2018-04-24T00:29:27.225Z,10.91
2018-04-24T00:30:27.293Z,10.84
2018-04-24T00:31:27.282Z,10.98
2018-04-24T00:32:27.396Z,10.96
2018-04-24T00:33:27.439Z,10.95
2018-04-24T00:34:27.546Z,10.88
2018-04-24T00:35:27.643Z,10.83
2018-04-24T00:36:27.705Z,10.81
2018-04-24T00:37:27.849Z,10.83
2018-04-24T00:38:27.956Z,10.73
2018-04-24T00:39:28.091Z,10.73
2018-04-24T00:40:28.197Z,10.76
2018-04-24T00:41:28.326Z,10.70
2018-04-24T00:42:28.485Z,10.71
2018-04-24T00:43:28.575Z,10.63
2018-04-24T00:44:28.627Z,10.71
2018-04-24T00:45:28.695Z,10.68
2018-04-24T00:46:28.749Z,10.70
2018-04-24T00:47:28.880Z,10.65
2018-04-24T00:48:29.020Z,10.68
2018-04-24T00:49:29.057Z,10.63
2018-04-24T00:50:29.161Z,10.51
2018-04-24T00:51:29.337Z,10.56
2018-04-24T00:52:29.429Z,10.62
2018-04-24T00:53:29.562Z,10.53
2018-04-24T00:54:29.647Z,10.40
2018-04-24T00:55:29.732Z,10.34
2018-04-24T00:56:29.877Z,10.40
2018-04-24T00:57:29.975Z,10.43
2018-04-24T00:58:30.126Z,10.33
2018-04-24T00:59:30.257Z,10.40
2018-04-24T01:00:30.352Z,10.39
2018-04-24T01:01:30.506Z,10.40
2018-04-24T01:02:30.644Z,10.40
2018-04-24T01:03:30.723Z,10.40
2018-04-24T01:04:30.807Z,10.42
2018-04-24T01:05:30.889Z,10.36
2018-04-24T01:06:31.046Z,10.39
2018-04-24T01:07:31.160Z,10.36
2018-04-24T01:08:31.308Z,10.32
2018-04-24T01:09:31.581Z,10.36
2018-04-24T01:10:31.458Z,10.28
2018-04-24T01:11:31.597Z,10.26
2018-04-24T01:12:31.632Z,10.24
2018-04-24T01:13:31.826Z,10.14
2018-04-24T01:14:31.867Z,10.17
2018-04-24T01:15:31.992Z,10.26
2018-04-24T01:16:32.124Z,10.22
2018-04-24T01:17:32.246Z,10.28
2018-04-24T01:18:32.266Z,10.21
2018-04-24T01:19:32.328Z,10.24
2018-04-24T01:20:32.435Z,10.19
2018-04-24T01:21:32.468Z,10.28
2018-04-24T01:22:32.511Z,10.24
2018-04-24T01:23:32.622Z,10.24
2018-04-24T01:24:32.868Z,10.22
2018-04-24T01:25:32.893Z,10.21
2018-04-24T01:26:32.878Z,10.18
2018-04-24T01:27:32.986Z,10.19
2018-04-24T01:28:33.138Z,10.19
2018-04-24T01:29:33.235Z,10.09
2018-04-24T01:30:33.316Z,10.15
2018-04-24T01:31:33.419Z,10.10
2018-04-24T01:32:33.588Z,10.03
2018-04-24T01:33:33.573Z,10.07
2018-04-24T01:34:33.708Z,10.06
2018-04-24T01:35:33.867Z,10.01
2018-04-24T01:36:33.887Z,10.12
2018-04-24T01:37:33.964Z,10.06
2018-04-24T01:38:34.091Z,10.04
2018-04-24T01:39:34.193Z,10.04
2018-04-24T01:40:34.289Z,10.06
2018-04-24T01:41:34.403Z,10.10
2018-04-24T01:42:34.505Z,10.06
2018-04-24T01:43:34.617Z,10.12
2018-04-24T01:44:34.762Z,10.01
2018-04-24T01:45:34.855Z,9.93
2018-04-24T01:46:35.001Z,9.75
2018-04-24T01:47:35.100Z,9.71
2018-04-24T01:48:35.198Z,9.66
2018-04-24T01:49:35.292Z,9.53
2018-04-24T01:50:35.395Z,9.63
2018-04-24T01:51:35.499Z,9.56
2018-04-24T01:52:35.611Z,9.60
2018-04-24T01:53:35.741Z,9.64
2018-04-24T01:54:35.873Z,9.63
2018-04-24T01:55:36.000Z,9.61
2018-04-24T01:56:36.030Z,9.70
2018-04-24T01:57:36.074Z,9.76
2018-04-24T01:58:36.189Z,9.75
2018-04-24T01:59:36.278Z,9.76
2018-04-24T02:00:36.383Z,9.82
2018-04-24T02:01:36.478Z,9.71
2018-04-24T02:02:36.622Z,9.83
2018-04-24T02:03:36.706Z,9.83
2018-04-24T02:04:36.817Z,9.71
2018-04-24T02:05:36.905Z,9.67
2018-04-24T02:06:37.007Z,9.76
2018-04-24T02:07:37.122Z,9.75
2018-04-24T02:08:37.211Z,9.67
2018-04-24T02:09:37.296Z,9.67
2018-04-24T02:10:37.476Z,9.70
2018-04-24T02:11:37.443Z,9.71
2018-04-24T02:12:37.553Z,9.58
2018-04-24T02:13:37.682Z,9.66
2018-04-24T02:14:37.768Z,9.66
2018-04-24T02:15:37.865Z,9.70
2018-04-24T02:16:37.954Z,9.75
2018-04-24T02:17:38.034Z,9.79
2018-04-24T02:18:38.193Z,9.71
2018-04-24T02:19:38.342Z,9.68
2018-04-24T02:20:38.425Z,9.82
2018-04-24T02:21:38.566Z,9.71
2018-04-24T02:22:38.729Z,9.78
2018-04-24T02:23:38.784Z,9.78
2018-04-24T02:24:38.866Z,9.76
2018-04-24T02:25:38.892Z,9.75
2018-04-24T02:26:38.982Z,9.78
2018-04-24T02:27:39.097Z,9.71
2018-04-24T02:28:39.216Z,9.63
2018-04-24T02:29:39.336Z,9.68
2018-04-24T02:30:39.413Z,9.71
2018-04-24T02:31:39.493Z,9.76
2018-04-24T02:32:39.606Z,9.75
2018-04-24T02:33:39.704Z,9.67
2018-04-24T02:34:39.857Z,9.66
2018-04-24T02:35:39.969Z,9.64
2018-04-24T02:36:40.059Z,9.68
2018-04-24T02:37:40.138Z,9.71
2018-04-24T02:38:40.240Z,9.67
2018-04-24T02:39:40.331Z,9.70
2018-04-24T02:40:40.413Z,9.60
2018-04-24T02:41:40.494Z,9.53
2018-04-24T02:42:40.588Z,9.58
2018-04-24T02:43:40.698Z,9.53
2018-04-24T02:44:40.779Z,9.63
2018-04-24T02:45:40.905Z,9.53
2018-04-24T02:46:40.986Z,9.45
2018-04-24T02:47:41.138Z,9.53
2018-04-24T02:48:41.247Z,9.49
2018-04-24T02:49:41.351Z,9.52
2018-04-24T02:50:41.460Z,9.45
2018-04-24T02:51:41.539Z,9.57
2018-04-24T02:52:41.695Z,9.48
2018-04-24T02:53:41.821Z,9.48
2018-04-24T02:54:41.941Z,9.49
2018-04-24T02:55:41.967Z,9.46
2018-04-24T02:56:42.083Z,9.40
2018-04-24T02:57:42.169Z,9.45
2018-04-24T02:58:42.285Z,9.46
2018-04-24T02:59:42.386Z,9.48
2018-04-24T03:00:42.475Z,9.40
2018-04-24T03:01:42.566Z,9.35
2018-04-24T03:02:42.652Z,9.34
2018-04-24T03:03:42.757Z,9.46
2018-04-24T03:04:42.847Z,9.39
2018-04-24T03:05:42.942Z,9.35
2018-04-24T03:06:43.033Z,9.48
2018-04-24T03:07:43.131Z,9.42
2018-04-24T03:08:43.235Z,9.35
2018-04-24T03:09:43.329Z,9.43
2018-04-24T03:10:43.450Z,9.38
2018-04-24T03:11:43.588Z,9.39
2018-04-24T03:12:43.621Z,9.35
2018-04-24T03:13:43.701Z,9.35
2018-04-24T03:14:43.802Z,9.34
2018-04-24T03:15:43.916Z,9.34
2018-04-24T03:16:44.039Z,9.35
2018-04-24T03:17:44.133Z,9.39
2018-04-24T03:18:44.225Z,9.38
2018-04-24T03:19:44.321Z,9.27
2018-04-24T03:20:44.417Z,9.15
2018-04-24T03:21:44.522Z,9.27
2018-04-24T03:22:44.632Z,9.18
2018-04-24T03:23:44.720Z,9.23
2018-04-24T03:24:44.818Z,9.25
2018-04-24T03:25:44.901Z,9.21
2018-04-24T03:26:44.997Z,9.18
2018-04-24T03:27:45.088Z,9.23
2018-04-24T03:28:45.179Z,9.21
2018-04-24T03:29:45.277Z,9.27
2018-04-24T03:30:45.370Z,9.20
2018-04-24T03:31:45.467Z,9.13
2018-04-24T03:32:45.559Z,9.24
2018-04-24T03:33:45.668Z,9.24
2018-04-24T03:34:45.751Z,9.20
2018-04-24T03:35:45.845Z,9.13
2018-04-24T03:36:45.944Z,9.13
2018-04-24T03:37:46.026Z,9.04
2018-04-24T03:38:46.125Z,9.20
2018-04-24T03:39:46.217Z,9.13
2018-04-24T03:40:46.316Z,9.02
2018-04-24T03:41:46.415Z,9.16
2018-04-24T03:42:46.493Z,9.12
2018-04-24T03:43:46.573Z,9.01
2018-04-24T03:44:46.665Z,8.99
2018-04-24T03:45:46.763Z,9.09
2018-04-24T03:46:46.863Z,9.10
2018-04-24T03:47:46.948Z,9.05
2018-04-24T03:48:47.040Z,9.04
2018-04-24T03:49:47.159Z,8.99
2018-04-24T03:50:47.256Z,9.05
2018-04-24T03:51:47.354Z,9.09
2018-04-24T03:52:47.447Z,9.04
2018-04-24T03:53:47.538Z,9.04
2018-04-24T03:54:47.629Z,9.10
2018-04-24T03:55:47.722Z,9.06
2018-04-24T03:56:47.807Z,9.15
2018-04-24T03:57:47.904Z,9.02
2018-04-24T03:58:47.997Z,9.12
2018-04-24T03:59:48.092Z,9.06
2018-04-24T04:00:48.189Z,8.99
2018-04-24T04:01:48.284Z,9.06
2018-04-24T04:02:48.378Z,9.01
2018-04-24T04:03:48.475Z,8.96
2018-04-24T04:04:48.574Z,8.91
2018-04-24T04:05:48.666Z,8.96
2018-04-24T04:06:48.762Z,8.91
2018-04-24T04:07:48.860Z,8.88
2018-04-24T04:08:48.951Z,8.91
2018-04-24T04:09:49.049Z,8.93
2018-04-24T04:10:49.141Z,8.86
2018-04-24T04:11:49.238Z,8.99
2018-04-24T04:12:49.334Z,8.99
2018-04-24T04:13:49.434Z,9.01
2018-04-24T04:14:49.528Z,9.06
2018-04-24T04:15:49.635Z,8.99
2018-04-24T04:16:49.719Z,8.94
2018-04-24T04:17:49.813Z,8.91
2018-04-24T04:18:49.908Z,9.02
2018-04-24T04:19:50.006Z,9.01
2018-04-24T04:20:50.103Z,8.94
2018-04-24T04:21:50.199Z,8.93
2018-04-24T04:22:50.306Z,8.96
2018-04-24T04:23:50.405Z,8.99
2018-04-24T04:24:50.499Z,9.06
2018-04-24T04:25:50.595Z,9.12
2018-04-24T04:26:50.692Z,8.99
2018-04-24T04:27:50.789Z,9.06
2018-04-24T04:28:50.878Z,9.10
2018-04-24T04:29:50.973Z,9.02
2018-04-24T04:30:51.068Z,9.15
2018-04-24T04:31:51.165Z,9.09
2018-04-24T04:32:51.278Z,9.12
2018-04-24T04:33:51.359Z,9.18
2018-04-24T04:34:51.453Z,9.15
2018-04-24T04:35:51.555Z,9.20
2018-04-24T04:36:51.641Z,9.20
2018-04-24T04:37:51.737Z,9.16
2018-04-24T04:38:51.832Z,9.18
2018-04-24T04:39:51.927Z,9.25
2018-04-24T04:40:52.024Z,9.28
2018-04-24T04:41:52.119Z,9.31
2018-04-24T04:42:52.230Z,9.32
2018-04-24T04:43:52.327Z,9.34
2018-04-24T04:44:52.420Z,9.42
2018-04-24T04:45:52.516Z,9.40
2018-04-24T04:46:52.613Z,9.40
2018-04-24T04:47:52.772Z,9.38
2018-04-24T04:48:52.799Z,9.34
2018-04-24T04:49:52.897Z,9.43
2018-04-24T04:50:52.988Z,9.50
2018-04-24T04:51:53.096Z,9.43
2018-04-24T04:52:53.177Z,9.48
2018-04-24T04:53:53.272Z,9.50
2018-04-24T04:54:53.369Z,9.46
2018-04-24T04:55:53.460Z,9.46
2018-04-24T04:56:53.555Z,9.49
2018-04-24T04:57:53.651Z,9.46
2018-04-24T04:58:53.752Z,9.60
2018-04-24T04:59:53.842Z,9.56
2018-04-24T05:00:53.942Z,9.58
2018-04-24T05:01:54.042Z,9.64
2018-04-24T05:02:54.102Z,9.68
2018-04-24T05:03:54.216Z,9.68
2018-04-24T05:04:54.311Z,9.68
2018-04-24T05:05:54.405Z,9.78
2018-04-24T05:06:54.501Z,9.76
2018-04-24T05:07:54.598Z,9.85
2018-04-24T05:08:54.693Z,9.76
2018-04-24T05:09:54.785Z,9.81
2018-04-24T05:10:54.915Z,9.86
2018-04-24T05:11:55.011Z,9.83
2018-04-24T05:12:55.228Z,9.82
2018-04-24T05:13:55.222Z,9.82
2018-04-24T05:14:55.278Z,9.94
2018-04-24T05:15:55.373Z,9.93
2018-04-24T05:16:55.468Z,10.00
2018-04-24T05:17:55.552Z,10.00
2018-04-24T05:18:55.752Z,10.04
2018-04-24T05:19:55.737Z,9.89
2018-04-24T05:20:55.882Z,9.97
2018-04-24T05:21:55.941Z,9.96
2018-04-24T05:22:56.049Z,10.07
2018-04-24T05:23:56.054Z,9.99
2018-04-24T05:24:56.196Z,10.07
2018-04-24T05:25:56.223Z,9.99
2018-04-24T05:26:56.397Z,10.00
2018-04-24T05:27:56.416Z,10.04
2018-04-24T05:28:56.452Z,10.09
2018-04-24T05:29:56.547Z,10.14
2018-04-24T05:30:56.642Z,10.07
2018-04-24T05:31:56.745Z,10.01
2018-04-24T05:32:56.826Z,10.03
2018-04-24T05:33:57.059Z,10.14
2018-04-24T05:34:57.609Z,10.22
2018-04-24T05:35:57.205Z,10.09
2018-04-24T05:36:57.496Z,10.18
2018-04-24T05:37:57.518Z,10.22
2018-04-24T05:38:57.501Z,10.25
2018-04-24T05:39:57.644Z,10.36
2018-04-24T05:40:58.014Z,10.43
2018-04-24T05:41:57.861Z,10.42
2018-04-24T05:42:57.961Z,10.46
2018-04-24T05:43:58.086Z,10.58
2018-04-24T05:44:58.542Z,10.55
2018-04-24T05:45:58.427Z,10.62
2018-04-24T05:46:58.461Z,10.66
2018-04-24T05:47:58.458Z,10.68
2018-04-24T05:48:58.604Z,10.65
2018-04-24T05:50:00.738Z,10.76
2018-04-24T05:50:58.806Z,10.81
2018-04-24T05:51:58.980Z,10.88
2018-04-24T05:52:59.053Z,10.96
2018-04-24T05:53:59.185Z,11.02
2018-04-24T05:54:59.296Z,11.02
2018-04-24T05:55:59.478Z,11.09
2018-04-24T05:56:59.339Z,11.21
2018-04-24T05:57:59.436Z,11.32
2018-04-24T05:58:59.545Z,11.38
2018-04-24T05:59:59.698Z,11.41
2018-04-24T06:00:59.876Z,11.44
2018-04-24T06:01:59.871Z,11.49
2018-04-24T06:03:00.080Z,11.72
2018-04-24T06:04:00.143Z,11.96
2018-04-24T06:05:00.408Z,12.30
2018-04-24T06:06:00.424Z,12.39
2018-04-24T06:07:00.476Z,12.59
2018-04-24T06:08:00.649Z,12.81
2018-04-24T06:09:00.982Z,13.03
2018-04-24T06:10:00.713Z,13.21
2018-04-24T06:11:00.902Z,13.44
2018-04-24T06:12:00.900Z,13.56
2018-04-24T06:13:01.118Z,13.59
2018-04-24T06:14:01.247Z,13.56
2018-04-24T06:15:01.327Z,13.70
2018-04-24T06:16:01.416Z,13.96
2018-04-24T06:17:01.380Z,13.98
2018-04-24T06:18:01.556Z,14.19
2018-04-24T06:19:01.632Z,14.21
2018-04-24T06:20:01.707Z,14.25
2018-04-24T06:21:01.814Z,14.44
2018-04-24T06:22:01.917Z,14.57
2018-04-24T06:23:02.671Z,14.81
2018-04-24T06:24:02.216Z,15.09
2018-04-24T06:25:02.177Z,15.36
2018-04-24T06:26:02.276Z,15.49
2018-04-24T06:27:02.544Z,15.81
2018-04-24T06:28:02.833Z,15.96
2018-04-24T06:29:02.820Z,16.26
2018-04-24T06:30:02.949Z,16.35
2018-04-24T06:31:02.899Z,16.56
2018-04-24T06:32:02.982Z,16.60
2018-04-24T06:33:03.196Z,16.70
2018-04-24T06:34:03.047Z,16.63
2018-04-24T06:35:03.163Z,16.85
2018-04-24T06:36:03.330Z,17.15
2018-04-24T06:37:03.435Z,17.25
2018-04-24T06:38:03.676Z,17.50
2018-04-24T06:39:04.031Z,17.43
2018-04-24T06:40:03.780Z,17.47
2018-04-24T06:41:03.918Z,17.46
2018-04-24T06:42:03.939Z,17.53
2018-04-24T06:43:04.593Z,17.26
2018-04-24T06:44:04.183Z,17.25
2018-04-24T06:45:04.262Z,17.23
2018-04-24T06:46:04.365Z,17.23
2018-04-24T06:47:04.481Z,17.35
2018-04-24T06:48:04.603Z,17.40
2018-04-24T06:49:04.732Z,17.28
2018-04-24T06:50:04.761Z,17.29
2018-04-24T06:51:04.864Z,17.13
2018-04-24T06:52:04.956Z,17.15
2018-04-24T06:53:05.063Z,17.13
2018-04-24T06:54:05.167Z,17.10
2018-04-24T06:55:05.338Z,17.11
2018-04-24T06:56:05.622Z,17.14
2018-04-24T06:57:05.481Z,17.14
2018-04-24T06:58:05.587Z,16.99
2018-04-24T06:59:05.700Z,17.08
2018-04-24T07:00:05.859Z,17.10
2018-04-24T07:01:05.947Z,16.95
2018-04-24T07:02:06.040Z,16.93
2018-04-24T07:03:06.168Z,16.80
2018-04-24T07:04:06.261Z,16.81
2018-04-24T07:05:06.374Z,16.90
2018-04-24T07:06:06.534Z,16.92
2018-04-24T07:07:06.661Z,16.90
2018-04-24T07:08:06.769Z,16.93
2018-04-24T07:09:06.872Z,16.89
2018-04-24T07:10:06.991Z,16.90
2018-04-24T07:11:07.030Z,17.07
2018-04-24T07:12:07.130Z,17.11
2018-04-24T07:13:07.234Z,17.15
2018-04-24T07:14:07.381Z,17.10
2018-04-24T07:15:07.594Z,17.10
2018-04-24T07:16:07.574Z,17.17
2018-04-24T07:17:07.655Z,17.13
2018-04-24T07:18:07.848Z,17.14
2018-04-24T07:19:07.985Z,17.22
2018-04-24T07:20:08.081Z,17.22
2018-04-24T07:21:08.183Z,17.32
2018-04-24T07:22:08.312Z,17.35
2018-04-24T07:23:08.526Z,17.33
2018-04-24T07:24:08.586Z,17.29
2018-04-24T07:25:08.567Z,17.23
2018-04-24T07:26:08.781Z,17.20
2018-04-24T07:27:08.835Z,17.08
2018-04-24T07:28:08.965Z,17.03
2018-04-24T07:29:09.154Z,17.15
2018-04-24T07:30:09.125Z,16.77
2018-04-24T07:31:09.241Z,16.83
2018-04-24T07:32:09.338Z,16.71
2018-04-24T07:33:09.542Z,16.59
2018-04-24T07:34:09.533Z,16.70
2018-04-24T07:35:09.620Z,16.70
2018-04-24T07:36:09.697Z,16.83
2018-04-24T07:37:09.834Z,16.58
2018-04-24T07:38:09.856Z,16.75
2018-04-24T07:39:09.981Z,16.80
2018-04-24T07:40:10.081Z,16.86
2018-04-24T07:41:10.258Z,16.86
2018-04-24T07:42:10.280Z,16.93
2018-04-24T07:43:10.394Z,17.06
2018-04-24T07:44:10.498Z,17.00
2018-04-24T07:45:10.594Z,16.89
2018-04-24T07:46:10.718Z,16.74
2018-04-24T07:47:10.817Z,16.60
2018-04-24T07:48:10.920Z,16.63
2018-04-24T07:49:11.020Z,16.42
2018-04-24T07:50:11.123Z,16.48
2018-04-24T07:51:11.236Z,16.55
2018-04-24T07:52:11.330Z,16.73
2018-04-24T07:53:11.872Z,16.68
2018-04-24T07:54:11.471Z,16.77
2018-04-24T07:55:11.690Z,16.55
2018-04-24T07:56:11.662Z,16.56
2018-04-24T07:57:11.800Z,16.49
2018-04-24T07:58:11.921Z,16.56
2018-04-24T07:59:12.018Z,16.56
2018-04-24T08:00:12.119Z,16.71
2018-04-24T08:01:12.348Z,16.77
2018-04-24T08:02:12.329Z,16.75
2018-04-24T08:03:12.433Z,16.56
2018-04-24T08:04:12.533Z,16.52
2018-04-24T08:05:12.725Z,16.56
2018-04-24T08:06:12.705Z,16.26
2018-04-24T08:07:12.833Z,16.48
2018-04-24T08:08:12.976Z,16.60
2018-04-24T08:09:13.036Z,16.70
2018-04-24T08:10:13.134Z,16.78
2018-04-24T08:11:13.232Z,17.07
2018-04-24T08:12:13.366Z,17.14
2018-04-24T08:13:13.462Z,17.20
2018-04-24T08:14:13.563Z,17.29
2018-04-24T08:15:13.665Z,17.40
2018-04-24T08:16:13.775Z,17.57
2018-04-24T08:17:13.877Z,17.70
2018-04-24T08:18:13.978Z,17.76
2018-04-24T08:19:14.082Z,17.63
2018-04-24T08:20:14.183Z,17.69
2018-04-24T08:21:14.283Z,17.88
2018-04-24T08:22:14.376Z,17.84
2018-04-24T08:23:14.489Z,17.87
2018-04-24T08:24:14.613Z,17.97
2018-04-24T08:25:14.717Z,18.13
2018-04-24T08:26:14.821Z,18.02
2018-04-24T08:27:14.921Z,18.15
2018-04-24T08:28:15.024Z,17.99
2018-04-24T08:29:15.143Z,17.95
2018-04-24T08:30:15.243Z,17.95
2018-04-24T08:31:15.350Z,17.89
2018-04-24T08:32:15.450Z,17.66
2018-04-24T08:33:15.554Z,17.84
2018-04-24T08:34:15.676Z,17.88
2018-04-24T08:35:15.785Z,18.04
2018-04-24T08:36:15.878Z,18.22
2018-04-24T08:37:15.984Z,18.36
2018-04-24T08:38:16.089Z,18.43
2018-04-24T08:39:16.193Z,18.44
2018-04-24T08:40:16.800Z,18.43
2018-04-24T08:41:16.403Z,18.42
2018-04-24T08:42:16.512Z,18.62
2018-04-24T08:43:16.612Z,18.64
2018-04-24T08:44:16.715Z,18.50
2018-04-24T08:45:16.816Z,18.40
2018-04-24T08:46:16.922Z,18.22
2018-04-24T08:47:17.017Z,17.92
2018-04-24T08:48:17.116Z,18.15
2018-04-24T08:49:17.216Z,18.33
2018-04-24T08:50:17.314Z,18.28
2018-04-24T08:51:17.415Z,18.22
2018-04-24T08:52:17.514Z,18.44
2018-04-24T08:53:17.618Z,18.55
2018-04-24T08:54:17.718Z,18.64
2018-04-24T08:55:17.820Z,18.49
2018-04-24T08:56:17.966Z,18.43
2018-04-24T08:57:18.022Z,18.52
2018-04-24T08:58:18.129Z,18.47
2018-04-24T08:59:18.224Z,18.58
2018-04-24T09:00:18.329Z,18.36
2018-04-24T09:01:18.443Z,18.25
2018-04-24T09:02:18.524Z,18.25
2018-04-24T09:03:18.626Z,18.40
2018-04-24T09:04:18.790Z,18.52
2018-04-24T09:05:18.812Z,18.64
2018-04-24T09:06:18.916Z,18.73
2018-04-24T09:07:19.014Z,18.73
2018-04-24T09:08:19.118Z,18.67
2018-04-24T09:09:19.234Z,18.64
2018-04-24T09:10:19.334Z,18.83
2018-04-24T09:11:19.445Z,18.94
2018-04-24T09:12:19.538Z,18.91
2018-04-24T09:13:19.641Z,18.98
2018-04-24T09:14:19.741Z,18.86
2018-04-24T09:15:19.845Z,18.90
2018-04-24T09:16:19.947Z,18.92
2018-04-24T09:17:20.048Z,18.94
2018-04-24T09:18:20.150Z,18.90
2018-04-24T09:19:20.252Z,18.98
2018-04-24T09:20:20.349Z,19.11
2018-04-24T09:21:20.460Z,19.11
2018-04-24T09:22:20.563Z,19.18
2018-04-24T09:23:20.670Z,19.33
2018-04-24T09:24:20.771Z,19.32
2018-04-24T09:25:20.871Z,19.38
2018-04-24T09:26:20.974Z,19.33
2018-04-24T09:27:21.162Z,19.46
2018-04-24T09:28:21.188Z,19.25
2018-04-24T09:29:21.290Z,18.94
2018-04-24T09:30:21.393Z,18.92
2018-04-24T09:31:21.489Z,18.86
2018-04-24T09:32:21.621Z,18.86
2018-04-24T09:33:21.725Z,18.72
2018-04-24T09:34:21.821Z,18.70
2018-04-24T09:35:21.931Z,18.82
2018-04-24T09:36:22.025Z,19.05
2018-04-24T09:37:22.126Z,19.11
2018-04-24T09:38:22.218Z,19.36
2018-04-24T09:39:22.331Z,19.35
2018-04-24T09:40:22.479Z,19.38
2018-04-24T09:41:22.577Z,19.60
2018-04-24T09:42:22.681Z,19.60
2018-04-24T09:43:22.784Z,19.69
2018-04-24T09:44:22.884Z,19.58
2018-04-24T09:45:22.985Z,19.72
2018-04-24T09:46:23.098Z,19.84
2018-04-24T09:47:23.190Z,19.80
2018-04-24T09:48:23.289Z,19.84
2018-04-24T09:49:23.429Z,19.84
2018-04-24T09:50:23.498Z,19.90
2018-04-24T09:51:23.712Z,19.97
2018-04-24T09:52:23.676Z,19.88
2018-04-24T09:53:23.816Z,19.86
2018-04-24T09:54:23.849Z,19.93
2018-04-24T09:55:23.952Z,19.98
2018-04-24T09:56:24.053Z,20.08
2018-04-24T09:57:24.154Z,20.08
2018-04-24T09:58:24.254Z,19.97
2018-04-24T09:59:24.598Z,20.10
2018-04-24T10:00:24.445Z,20.16
2018-04-24T10:01:24.551Z,19.80
2018-04-24T10:02:24.652Z,19.86
2018-04-24T10:03:24.751Z,19.80
2018-04-24T10:04:24.866Z,19.93
2018-04-24T10:05:24.958Z,19.98
2018-04-24T10:06:25.052Z,20.15
2018-04-24T10:07:25.153Z,20.34
2018-04-24T10:08:25.253Z,20.34
2018-04-24T10:09:25.463Z,20.68
2018-04-24T10:10:25.439Z,20.62
2018-04-24T10:11:25.539Z,20.76
2018-04-24T10:12:25.641Z,20.80
2018-04-24T10:13:25.835Z,20.99
2018-04-24T10:14:25.844Z,20.91
2018-04-24T10:15:26.085Z,21.17
2018-04-24T10:16:26.095Z,21.04
2018-04-24T10:17:26.072Z,20.81
2018-04-24T10:18:26.198Z,20.99
2018-04-24T10:19:26.328Z,20.86
2018-04-24T10:20:26.434Z,20.91
2018-04-24T10:21:26.545Z,21.16
2018-04-24T10:22:26.647Z,21.34
2018-04-24T10:23:26.739Z,21.14
2018-04-24T10:24:26.835Z,21.27
2018-04-24T10:25:26.989Z,21.04
2018-04-24T10:26:27.860Z,20.87
2018-04-24T10:27:27.330Z,21.02
2018-04-24T10:28:27.345Z,21.06
2018-04-24T10:29:27.444Z,21.29
2018-04-24T10:30:27.569Z,21.34
2018-04-24T10:31:27.658Z,21.35
2018-04-24T10:32:28.148Z,21.26
2018-04-24T10:33:28.054Z,21.08
2018-04-24T10:34:28.033Z,21.06
2018-04-24T10:35:28.017Z,20.81
2018-04-24T10:36:28.397Z,21.04
2018-04-24T10:37:28.252Z,21.06
2018-04-24T10:38:28.272Z,20.76
2018-04-24T10:39:28.438Z,20.95
2018-04-24T10:40:28.563Z,21.09
2018-04-24T10:41:28.663Z,21.14
2018-04-24T10:42:28.767Z,21.27
2018-04-24T10:43:28.939Z,20.93
2018-04-24T10:44:29.164Z,21.14
2018-04-24T10:45:29.012Z,20.77
2018-04-24T10:46:29.365Z,20.87
2018-04-24T10:47:29.319Z,20.68
2018-04-24T10:48:29.502Z,20.62
2018-04-24T10:49:29.534Z,20.58
2018-04-24T10:50:29.819Z,20.64
2018-04-24T10:51:29.897Z,20.87
2018-04-24T10:52:29.899Z,21.09
2018-04-24T10:53:30.008Z,21.16
2018-04-24T10:54:30.141Z,21.09
2018-04-24T10:55:30.183Z,21.30
2018-04-24T10:56:30.280Z,21.38
2018-04-24T10:57:30.397Z,21.54
2018-04-24T10:58:30.530Z,21.39
2018-04-24T10:59:30.629Z,21.35
2018-04-24T11:00:30.735Z,21.32
2018-04-24T11:01:30.849Z,21.44
2018-04-24T11:02:30.931Z,21.38
2018-04-24T11:03:31.053Z,21.54
2018-04-24T11:04:31.700Z,21.61
2018-04-24T11:05:31.327Z,21.67
2018-04-24T11:06:31.447Z,21.76
2018-04-24T11:07:31.551Z,21.69
2018-04-24T11:08:31.649Z,21.54
2018-04-24T11:09:32.038Z,21.53
2018-04-24T11:10:31.821Z,21.67
2018-04-24T11:11:31.993Z,21.64
2018-04-24T11:12:32.111Z,21.64
2018-04-24T11:13:32.282Z,21.67
2018-04-24T11:14:32.307Z,21.60
2018-04-24T11:15:32.431Z,21.69
2018-04-24T11:16:32.572Z,21.88
2018-04-24T11:17:32.668Z,21.69
2018-04-24T11:18:32.755Z,21.72
2018-04-24T11:19:33.160Z,21.64
2018-04-24T11:20:33.068Z,21.66
2018-04-24T11:21:33.162Z,21.61
2018-04-24T11:22:33.210Z,21.50
2018-04-24T11:23:33.197Z,20.86
2018-04-24T11:24:33.299Z,20.87
2018-04-24T11:25:33.407Z,20.79
2018-04-24T11:26:33.545Z,20.65
2018-04-24T11:27:33.670Z,20.59
2018-04-24T11:28:33.758Z,20.59
2018-04-24T11:29:33.853Z,20.64
2018-04-24T11:30:34.097Z,20.43
2018-04-24T11:31:34.165Z,20.41
2018-04-24T11:32:34.240Z,20.46
2018-04-24T11:33:34.222Z,20.56
2018-04-24T11:34:34.316Z,20.56
2018-04-24T11:35:34.409Z,20.47
2018-04-24T11:36:34.509Z,20.43
2018-04-24T11:37:34.609Z,20.49
2018-04-24T11:38:34.696Z,20.33
2018-04-24T11:39:34.879Z,20.35
2018-04-24T11:40:34.880Z,20.42
2018-04-24T11:41:35.047Z,20.24
2018-04-24T11:42:35.094Z,19.95
2018-04-24T11:43:35.201Z,19.95
2018-04-24T11:44:35.304Z,19.87
2018-04-24T11:45:35.413Z,19.91
2018-04-24T11:46:35.500Z,19.93
2018-04-24T11:47:35.611Z,19.80
2018-04-24T11:48:35.698Z,19.79
2018-04-24T11:49:35.861Z,19.87
2018-04-24T11:50:35.936Z,19.93
2018-04-24T11:51:36.034Z,19.95
2018-04-24T11:52:36.131Z,19.94
2018-04-24T11:53:36.271Z,20.00
2018-04-24T11:54:36.409Z,20.09
2018-04-24T11:55:36.509Z,20.21
2018-04-24T11:56:36.617Z,20.18
2018-04-24T11:57:36.762Z,20.25
2018-04-24T11:58:36.887Z,20.31
2018-04-24T11:59:37.002Z,20.39
2018-04-24T12:00:37.106Z,20.21
2018-04-24T12:01:37.206Z,20.27
2018-04-24T12:02:37.364Z,20.34
2018-04-24T12:03:37.395Z,20.39
2018-04-24T12:04:37.494Z,20.38
2018-04-24T12:05:37.601Z,20.13
2018-04-24T12:06:37.670Z,19.98
2018-04-24T12:07:37.787Z,20.09
2018-04-24T12:08:37.894Z,19.80
2018-04-24T12:09:38.012Z,19.87
2018-04-24T12:10:38.115Z,19.94
2018-04-24T12:11:38.228Z,20.09
2018-04-24T12:12:38.324Z,20.12
2018-04-24T12:13:38.426Z,19.87
2018-04-24T12:14:38.525Z,19.95
2018-04-24T12:15:38.638Z,19.95
2018-04-24T12:16:38.736Z,19.87
2018-04-24T12:17:38.846Z,19.84
2018-04-24T12:18:38.949Z,19.75
2018-04-24T12:19:39.056Z,19.80
2018-04-24T12:20:39.143Z,19.79
2018-04-24T12:21:39.246Z,19.91
2018-04-24T12:22:39.352Z,19.94
2018-04-24T12:23:39.436Z,20.12
2018-04-24T12:24:39.633Z,20.05
2018-04-24T12:25:39.604Z,20.12
2018-04-24T12:26:39.732Z,20.13
2018-04-24T12:27:39.837Z,20.03
2018-04-24T12:28:39.941Z,20.00
2018-04-24T12:29:40.066Z,19.51
2018-04-24T12:30:40.176Z,19.57
2018-04-24T12:31:40.272Z,19.50
2018-04-24T12:32:40.373Z,19.65
2018-04-24T12:33:40.476Z,19.80
2018-04-24T12:34:40.578Z,20.05
2018-04-24T12:35:40.682Z,20.09
2018-04-24T12:36:40.785Z,20.12
2018-04-24T12:37:40.886Z,20.35
2018-04-24T12:38:40.984Z,20.56
2018-04-24T12:39:41.087Z,20.79
2018-04-24T12:40:41.187Z,21.04
2018-04-24T12:41:41.287Z,21.19
2018-04-24T12:42:41.397Z,21.27
2018-04-24T12:43:41.493Z,21.34
2018-04-24T12:44:41.593Z,21.53
2018-04-24T12:45:41.697Z,21.46
2018-04-24T12:46:41.797Z,21.35
2018-04-24T12:47:41.900Z,21.46
2018-04-24T12:48:42.006Z,21.67
2018-04-24T12:49:42.110Z,21.78
2018-04-24T12:50:42.208Z,21.75
2018-04-24T12:51:42.342Z,21.67
2018-04-24T12:52:42.409Z,21.71
2018-04-24T12:53:42.520Z,21.91
2018-04-24T12:54:42.632Z,21.97
2018-04-24T12:55:42.714Z,21.71
2018-04-24T12:56:42.818Z,21.83
2018-04-24T12:57:42.984Z,22.06
2018-04-24T12:58:43.032Z,21.98
2018-04-24T12:59:43.130Z,21.98
2018-04-24T13:00:43.234Z,21.79